sensor_id;sensor_type;location;lat;lon;timestamp;P1;durP1;ratioP1;P2;durP2;ratioP2
1691;SDS011;843;52.054;8.552;2022-12-07T00:02:25;48.37;;;30.00;;
1691;SDS011;843;52.054;8.552;2022-12-07T00:04:52;40.80;;;26.73;;
1691;SDS011;843;52.054;8.552;2022-12-07T00:07:18;50.87;;;30.80;;
1691;SDS011;843;52.054;8.552;2022-12-07T00:09:45;49.47;;;31.20;;
1691;SDS011;843;52.054;8.552;2022-12-07T00:12:12;46.10;;;31.87;;
1691;SDS011;843;52.054;8.552;2022-12-07T00:14:40;55.20;;;30.63;;
1691;SDS011;843;52.054;8.552;2022-12-07T00:17:06;49.30;;;30.37;;
1691;SDS011;843;52.054;8.552;2022-12-07T00:19:33;52.83;;;33.10;;
1691;SDS011;843;52.054;8.552;2022-12-07T00:21:59;58.87;;;32.93;;
1691;SDS011;843;52.054;8.552;2022-12-07T00:24:26;48.50;;;30.63;;
1691;SDS011;843;52.054;8.552;2022-12-07T00:26:53;53.20;;;31.77;;
1691;SDS011;843;52.054;8.552;2022-12-07T00:29:20;48.60;;;31.93;;
1691;SDS011;843;52.054;8.552;2022-12-07T00:31:49;52.70;;;33.03;;
1691;SDS011;843;52.054;8.552;2022-12-07T00:34:17;51.60;;;31.60;;
1691;SDS011;843;52.054;8.552;2022-12-07T00:36:44;49.23;;;32.13;;
1691;SDS011;843;52.054;8.552;2022-12-07T00:39:11;52.67;;;33.20;;
1691;SDS011;843;52.054;8.552;2022-12-07T00:41:38;55.63;;;32.77;;
1691;SDS011;843;52.054;8.552;2022-12-07T00:44:04;49.67;;;31.83;;
1691;SDS011;843;52.054;8.552;2022-12-07T00:46:31;55.10;;;31.80;;
1691;SDS011;843;52.054;8.552;2022-12-07T00:48:59;50.27;;;30.70;;
1691;SDS011;843;52.054;8.552;2022-12-07T00:51:26;51.10;;;30.10;;
1691;SDS011;843;52.054;8.552;2022-12-07T00:53:52;51.50;;;29.47;;
1691;SDS011;843;52.054;8.552;2022-12-07T00:56:20;52.93;;;30.53;;
1691;SDS011;843;52.054;8.552;2022-12-07T00:58:51;52.67;;;28.37;;
1691;SDS011;843;52.054;8.552;2022-12-07T01:01:19;50.83;;;28.57;;
1691;SDS011;843;52.054;8.552;2022-12-07T01:03:45;45.87;;;26.77;;
1691;SDS011;843;52.054;8.552;2022-12-07T01:06:15;43.93;;;28.27;;
1691;SDS011;843;52.054;8.552;2022-12-07T01:08:42;45.90;;;26.70;;
1691;SDS011;843;52.054;8.552;2022-12-07T01:11:10;50.70;;;28.93;;
1691;SDS011;843;52.054;8.552;2022-12-07T01:13:38;46.00;;;27.53;;
1691;SDS011;843;52.054;8.552;2022-12-07T01:16:05;43.07;;;26.77;;
1691;SDS011;843;52.054;8.552;2022-12-07T01:18:33;49.03;;;28.30;;
1691;SDS011;843;52.054;8.552;2022-12-07T01:21:01;47.50;;;27.70;;
1691;SDS011;843;52.054;8.552;2022-12-07T01:23:31;46.60;;;26.57;;
1691;SDS011;843;52.054;8.552;2022-12-07T01:25:59;46.90;;;27.10;;
1691;SDS011;843;52.054;8.552;2022-12-07T01:28:26;48.80;;;28.80;;
1691;SDS011;843;52.054;8.552;2022-12-07T01:30:57;48.50;;;25.90;;
1691;SDS011;843;52.054;8.552;2022-12-07T01:33:24;45.77;;;27.60;;
1691;SDS011;843;52.054;8.552;2022-12-07T01:35:50;45.80;;;26.13;;
1691;SDS011;843;52.054;8.552;2022-12-07T01:38:17;53.40;;;26.50;;
1691;SDS011;843;52.054;8.552;2022-12-07T01:40:45;41.63;;;26.37;;
1691;SDS011;843;52.054;8.552;2022-12-07T01:43:14;46.60;;;25.67;;
1691;SDS011;843;52.054;8.552;2022-12-07T01:45:43;40.00;;;23.53;;
1691;SDS011;843;52.054;8.552;2022-12-07T01:48:10;45.23;;;25.50;;
1691;SDS011;843;52.054;8.552;2022-12-07T01:50:38;40.37;;;24.70;;
1691;SDS011;843;52.054;8.552;2022-12-07T01:53:06;43.57;;;23.70;;
1691;SDS011;843;52.054;8.552;2022-12-07T01:55:35;36.00;;;23.87;;
1691;SDS011;843;52.054;8.552;2022-12-07T01:58:08;36.97;;;21.87;;
1691;SDS011;843;52.054;8.552;2022-12-07T02:00:35;38.43;;;22.53;;
1691;SDS011;843;52.054;8.552;2022-12-07T02:03:04;34.47;;;21.40;;
1691;SDS011;843;52.054;8.552;2022-12-07T02:05:32;35.30;;;22.73;;
1691;SDS011;843;52.054;8.552;2022-12-07T02:08:00;40.63;;;24.90;;
1691;SDS011;843;52.054;8.552;2022-12-07T02:10:27;37.40;;;22.60;;
1691;SDS011;843;52.054;8.552;2022-12-07T02:12:55;35.43;;;21.77;;
1691;SDS011;843;52.054;8.552;2022-12-07T02:15:25;32.93;;;20.57;;
1691;SDS011;843;52.054;8.552;2022-12-07T02:17:56;41.50;;;22.37;;
1691;SDS011;843;52.054;8.552;2022-12-07T02:20:28;31.30;;;20.57;;
1691;SDS011;843;52.054;8.552;2022-12-07T02:23:15;36.07;;;21.80;;
1691;SDS011;843;52.054;8.552;2022-12-07T02:26:24;35.40;;;21.50;;
1691;SDS011;843;52.054;8.552;2022-12-07T02:29:09;41.63;;;20.03;;
1691;SDS011;843;52.054;8.552;2022-12-07T02:31:41;36.67;;;20.60;;
1691;SDS011;843;52.054;8.552;2022-12-07T02:34:12;42.17;;;22.00;;
1691;SDS011;843;52.054;8.552;2022-12-07T02:36:43;31.33;;;18.47;;
1691;SDS011;843;52.054;8.552;2022-12-07T02:39:17;30.00;;;19.17;;
1691;SDS011;843;52.054;8.552;2022-12-07T02:41:46;34.53;;;18.30;;
1691;SDS011;843;52.054;8.552;2022-12-07T02:44:16;31.77;;;18.83;;
1691;SDS011;843;52.054;8.552;2022-12-07T02:46:44;33.50;;;18.70;;
1691;SDS011;843;52.054;8.552;2022-12-07T02:49:13;38.80;;;17.63;;
1691;SDS011;843;52.054;8.552;2022-12-07T02:51:41;31.37;;;18.90;;
1691;SDS011;843;52.054;8.552;2022-12-07T02:54:09;31.10;;;20.63;;
1691;SDS011;843;52.054;8.552;2022-12-07T02:56:39;35.33;;;19.43;;
1691;SDS011;843;52.054;8.552;2022-12-07T02:59:13;28.03;;;18.73;;
1691;SDS011;843;52.054;8.552;2022-12-07T03:01:48;35.03;;;18.13;;
1691;SDS011;843;52.054;8.552;2022-12-07T03:04:25;31.70;;;17.33;;
1691;SDS011;843;52.054;8.552;2022-12-07T03:07:00;29.83;;;16.93;;
1691;SDS011;843;52.054;8.552;2022-12-07T03:09:33;27.83;;;16.27;;
1691;SDS011;843;52.054;8.552;2022-12-07T03:12:06;30.70;;;17.17;;
1691;SDS011;843;52.054;8.552;2022-12-07T03:14:38;23.40;;;15.63;;
1691;SDS011;843;52.054;8.552;2022-12-07T03:17:09;27.20;;;16.03;;
1691;SDS011;843;52.054;8.552;2022-12-07T03:19:39;27.77;;;16.43;;
1691;SDS011;843;52.054;8.552;2022-12-07T03:22:07;29.20;;;16.07;;
1691;SDS011;843;52.054;8.552;2022-12-07T03:24:36;24.20;;;14.53;;
1691;SDS011;843;52.054;8.552;2022-12-07T03:27:06;23.30;;;15.20;;
1691;SDS011;843;52.054;8.552;2022-12-07T03:29:35;24.47;;;14.80;;
1691;SDS011;843;52.054;8.552;2022-12-07T03:32:06;24.10;;;14.17;;
1691;SDS011;843;52.054;8.552;2022-12-07T03:34:36;27.87;;;15.27;;
1691;SDS011;843;52.054;8.552;2022-12-07T03:37:05;28.00;;;14.40;;
1691;SDS011;843;52.054;8.552;2022-12-07T03:39:37;23.87;;;14.70;;
1691;SDS011;843;52.054;8.552;2022-12-07T03:42:06;22.63;;;14.00;;
1691;SDS011;843;52.054;8.552;2022-12-07T03:44:33;26.97;;;14.80;;
1691;SDS011;843;52.054;8.552;2022-12-07T03:47:03;26.20;;;13.93;;
1691;SDS011;843;52.054;8.552;2022-12-07T03:49:32;23.67;;;15.20;;
1691;SDS011;843;52.054;8.552;2022-12-07T03:52:07;23.07;;;14.30;;
1691;SDS011;843;52.054;8.552;2022-12-07T03:54:37;22.67;;;14.93;;
1691;SDS011;843;52.054;8.552;2022-12-07T03:57:07;23.13;;;14.73;;
1691;SDS011;843;52.054;8.552;2022-12-07T03:59:36;26.37;;;14.60;;
1691;SDS011;843;52.054;8.552;2022-12-07T04:02:05;28.07;;;15.13;;
1691;SDS011;843;52.054;8.552;2022-12-07T04:04:33;27.00;;;15.07;;
1691;SDS011;843;52.054;8.552;2022-12-07T04:07:00;28.00;;;14.67;;
1691;SDS011;843;52.054;8.552;2022-12-07T04:09:26;28.57;;;14.90;;
1691;SDS011;843;52.054;8.552;2022-12-07T04:11:53;21.60;;;14.27;;
1691;SDS011;843;52.054;8.552;2022-12-07T04:14:20;29.93;;;14.40;;
1691;SDS011;843;52.054;8.552;2022-12-07T04:16:47;20.63;;;13.40;;
1691;SDS011;843;52.054;8.552;2022-12-07T04:19:15;23.53;;;13.47;;
1691;SDS011;843;52.054;8.552;2022-12-07T04:21:43;24.83;;;15.13;;
1691;SDS011;843;52.054;8.552;2022-12-07T04:24:09;25.57;;;13.43;;
1691;SDS011;843;52.054;8.552;2022-12-07T04:26:37;23.97;;;14.10;;
1691;SDS011;843;52.054;8.552;2022-12-07T04:29:04;23.77;;;13.40;;
1691;SDS011;843;52.054;8.552;2022-12-07T04:31:30;23.07;;;14.23;;
1691;SDS011;843;52.054;8.552;2022-12-07T04:33:57;21.27;;;14.43;;
1691;SDS011;843;52.054;8.552;2022-12-07T04:36:25;22.20;;;14.30;;
1691;SDS011;843;52.054;8.552;2022-12-07T04:38:52;27.43;;;14.70;;
1691;SDS011;843;52.054;8.552;2022-12-07T04:41:19;18.80;;;13.73;;
1691;SDS011;843;52.054;8.552;2022-12-07T04:43:51;26.00;;;13.37;;
1691;SDS011;843;52.054;8.552;2022-12-07T04:46:19;22.47;;;13.17;;
1691;SDS011;843;52.054;8.552;2022-12-07T04:48:45;26.20;;;14.10;;
1691;SDS011;843;52.054;8.552;2022-12-07T04:51:12;25.17;;;13.73;;
1691;SDS011;843;52.054;8.552;2022-12-07T04:53:40;27.50;;;14.53;;
1691;SDS011;843;52.054;8.552;2022-12-07T04:56:07;24.60;;;13.97;;
1691;SDS011;843;52.054;8.552;2022-12-07T04:58:33;23.20;;;13.27;;
1691;SDS011;843;52.054;8.552;2022-12-07T05:01:00;20.47;;;14.57;;
1691;SDS011;843;52.054;8.552;2022-12-07T05:03:26;24.83;;;13.00;;
1691;SDS011;843;52.054;8.552;2022-12-07T05:05:53;21.03;;;13.57;;
1691;SDS011;843;52.054;8.552;2022-12-07T05:08:20;23.37;;;14.00;;
1691;SDS011;843;52.054;8.552;2022-12-07T05:10:49;23.30;;;12.50;;
1691;SDS011;843;52.054;8.552;2022-12-07T05:13:16;20.07;;;13.70;;
1691;SDS011;843;52.054;8.552;2022-12-07T05:15:42;28.00;;;12.47;;
1691;SDS011;843;52.054;8.552;2022-12-07T05:18:09;19.77;;;13.20;;
1691;SDS011;843;52.054;8.552;2022-12-07T05:20:37;23.40;;;12.20;;
1691;SDS011;843;52.054;8.552;2022-12-07T05:23:04;20.70;;;13.07;;
1691;SDS011;843;52.054;8.552;2022-12-07T05:25:31;25.80;;;13.10;;
1691;SDS011;843;52.054;8.552;2022-12-07T05:27:59;23.27;;;13.60;;
1691;SDS011;843;52.054;8.552;2022-12-07T05:30:25;19.60;;;13.30;;
1691;SDS011;843;52.054;8.552;2022-12-07T05:32:52;24.03;;;13.60;;
1691;SDS011;843;52.054;8.552;2022-12-07T05:35:19;20.97;;;14.07;;
1691;SDS011;843;52.054;8.552;2022-12-07T05:37:46;19.87;;;13.10;;
1691;SDS011;843;52.054;8.552;2022-12-07T05:40:13;23.80;;;13.90;;
1691;SDS011;843;52.054;8.552;2022-12-07T05:42:40;25.07;;;12.77;;
1691;SDS011;843;52.054;8.552;2022-12-07T05:45:11;24.33;;;14.37;;
1691;SDS011;843;52.054;8.552;2022-12-07T05:47:38;31.57;;;13.37;;
1691;SDS011;843;52.054;8.552;2022-12-07T05:50:05;19.53;;;12.40;;
1691;SDS011;843;52.054;8.552;2022-12-07T05:52:33;27.53;;;12.20;;
1691;SDS011;843;52.054;8.552;2022-12-07T05:54:59;19.23;;;12.53;;
1691;SDS011;843;52.054;8.552;2022-12-07T05:57:26;22.70;;;10.97;;
1691;SDS011;843;52.054;8.552;2022-12-07T05:59:52;17.47;;;11.27;;
1691;SDS011;843;52.054;8.552;2022-12-07T06:02:19;23.33;;;12.43;;
1691;SDS011;843;52.054;8.552;2022-12-07T06:04:46;21.40;;;11.40;;
1691;SDS011;843;52.054;8.552;2022-12-07T06:07:13;28.63;;;12.20;;
1691;SDS011;843;52.054;8.552;2022-12-07T06:09:41;18.40;;;11.30;;
1691;SDS011;843;52.054;8.552;2022-12-07T06:12:09;23.43;;;12.40;;
1691;SDS011;843;52.054;8.552;2022-12-07T06:14:53;19.33;;;11.60;;
1691;SDS011;843;52.054;8.552;2022-12-07T06:17:21;24.80;;;11.60;;
1691;SDS011;843;52.054;8.552;2022-12-07T06:19:48;22.10;;;12.43;;
1691;SDS011;843;52.054;8.552;2022-12-07T06:22:15;21.97;;;11.90;;
1691;SDS011;843;52.054;8.552;2022-12-07T06:24:43;27.17;;;15.40;;
1691;SDS011;843;52.054;8.552;2022-12-07T06:27:10;21.27;;;11.60;;
1691;SDS011;843;52.054;8.552;2022-12-07T06:29:37;17.80;;;11.87;;
1691;SDS011;843;52.054;8.552;2022-12-07T06:32:03;20.50;;;12.90;;
1691;SDS011;843;52.054;8.552;2022-12-07T06:34:32;22.00;;;12.33;;
1691;SDS011;843;52.054;8.552;2022-12-07T06:36:58;24.33;;;13.07;;
1691;SDS011;843;52.054;8.552;2022-12-07T06:39:25;28.80;;;12.80;;
1691;SDS011;843;52.054;8.552;2022-12-07T06:41:53;19.80;;;10.57;;
1691;SDS011;843;52.054;8.552;2022-12-07T06:44:20;22.13;;;11.80;;
1691;SDS011;843;52.054;8.552;2022-12-07T06:46:47;16.53;;;11.20;;
1691;SDS011;843;52.054;8.552;2022-12-07T06:49:14;25.07;;;11.87;;
1691;SDS011;843;52.054;8.552;2022-12-07T06:51:42;16.20;;;10.27;;
1691;SDS011;843;52.054;8.552;2022-12-07T06:54:09;18.37;;;10.80;;
1691;SDS011;843;52.054;8.552;2022-12-07T06:56:36;21.80;;;13.00;;
1691;SDS011;843;52.054;8.552;2022-12-07T06:59:03;19.27;;;11.23;;
1691;SDS011;843;52.054;8.552;2022-12-07T07:01:31;17.73;;;10.90;;
1691;SDS011;843;52.054;8.552;2022-12-07T07:03:58;20.17;;;10.30;;
1691;SDS011;843;52.054;8.552;2022-12-07T07:06:25;18.37;;;10.87;;
1691;SDS011;843;52.054;8.552;2022-12-07T07:08:53;22.10;;;11.63;;
1691;SDS011;843;52.054;8.552;2022-12-07T07:11:20;19.60;;;11.10;;
1691;SDS011;843;52.054;8.552;2022-12-07T07:13:46;18.70;;;11.53;;
1691;SDS011;843;52.054;8.552;2022-12-07T07:16:13;16.00;;;9.87;;
1691;SDS011;843;52.054;8.552;2022-12-07T07:18:40;15.10;;;9.67;;
1691;SDS011;843;52.054;8.552;2022-12-07T07:21:06;17.43;;;10.20;;
1691;SDS011;843;52.054;8.552;2022-12-07T07:23:33;15.80;;;10.93;;
1691;SDS011;843;52.054;8.552;2022-12-07T07:26:01;20.40;;;11.43;;
1691;SDS011;843;52.054;8.552;2022-12-07T07:28:28;22.67;;;10.33;;
1691;SDS011;843;52.054;8.552;2022-12-07T07:30:54;17.07;;;9.63;;
1691;SDS011;843;52.054;8.552;2022-12-07T07:33:21;19.20;;;10.60;;
1691;SDS011;843;52.054;8.552;2022-12-07T07:35:48;19.30;;;10.40;;
1691;SDS011;843;52.054;8.552;2022-12-07T07:38:14;23.00;;;10.90;;
1691;SDS011;843;52.054;8.552;2022-12-07T07:40:41;26.63;;;11.00;;
1691;SDS011;843;52.054;8.552;2022-12-07T07:43:09;22.63;;;10.37;;
1691;SDS011;843;52.054;8.552;2022-12-07T07:45:35;34.53;;;12.53;;
1691;SDS011;843;52.054;8.552;2022-12-07T07:48:04;39.83;;;12.03;;
1691;SDS011;843;52.054;8.552;2022-12-07T07:50:30;17.27;;;11.00;;
1691;SDS011;843;52.054;8.552;2022-12-07T07:52:57;22.07;;;10.73;;
1691;SDS011;843;52.054;8.552;2022-12-07T07:55:24;20.13;;;11.43;;
1691;SDS011;843;52.054;8.552;2022-12-07T07:57:50;17.57;;;9.60;;
1691;SDS011;843;52.054;8.552;2022-12-07T08:00:19;16.90;;;11.07;;
1691;SDS011;843;52.054;8.552;2022-12-07T08:02:46;25.33;;;10.13;;
1691;SDS011;843;52.054;8.552;2022-12-07T08:05:12;18.60;;;10.40;;
1691;SDS011;843;52.054;8.552;2022-12-07T08:07:39;22.33;;;10.53;;
1691;SDS011;843;52.054;8.552;2022-12-07T08:10:07;22.33;;;11.43;;
1691;SDS011;843;52.054;8.552;2022-12-07T08:12:37;21.97;;;11.30;;
1691;SDS011;843;52.054;8.552;2022-12-07T08:15:26;18.33;;;10.20;;
1691;SDS011;843;52.054;8.552;2022-12-07T08:17:53;19.00;;;11.10;;
1691;SDS011;843;52.054;8.552;2022-12-07T08:20:20;15.80;;;9.47;;
1691;SDS011;843;52.054;8.552;2022-12-07T08:22:47;16.10;;;10.73;;
1691;SDS011;843;52.054;8.552;2022-12-07T08:25:14;17.07;;;11.20;;
1691;SDS011;843;52.054;8.552;2022-12-07T08:27:40;21.33;;;10.00;;
1691;SDS011;843;52.054;8.552;2022-12-07T08:30:07;18.73;;;9.80;;
1691;SDS011;843;52.054;8.552;2022-12-07T08:32:36;18.50;;;10.63;;
1691;SDS011;843;52.054;8.552;2022-12-07T08:35:02;16.23;;;8.93;;
1691;SDS011;843;52.054;8.552;2022-12-07T08:37:29;16.83;;;10.30;;
1691;SDS011;843;52.054;8.552;2022-12-07T08:39:56;19.73;;;9.80;;
1691;SDS011;843;52.054;8.552;2022-12-07T08:42:22;19.57;;;9.20;;
1691;SDS011;843;52.054;8.552;2022-12-07T08:44:52;18.53;;;8.67;;
1691;SDS011;843;52.054;8.552;2022-12-07T08:47:19;15.27;;;8.67;;
1691;SDS011;843;52.054;8.552;2022-12-07T08:49:47;15.90;;;7.70;;
1691;SDS011;843;52.054;8.552;2022-12-07T08:52:15;17.03;;;8.00;;
1691;SDS011;843;52.054;8.552;2022-12-07T08:54:42;13.93;;;7.20;;
1691;SDS011;843;52.054;8.552;2022-12-07T08:57:08;12.63;;;6.83;;
1691;SDS011;843;52.054;8.552;2022-12-07T08:59:35;11.80;;;7.67;;
1691;SDS011;843;52.054;8.552;2022-12-07T09:02:03;10.37;;;6.47;;
1691;SDS011;843;52.054;8.552;2022-12-07T09:04:30;15.93;;;6.40;;
1691;SDS011;843;52.054;8.552;2022-12-07T09:06:58;10.23;;;5.87;;
1691;SDS011;843;52.054;8.552;2022-12-07T09:09:24;11.40;;;6.27;;
1691;SDS011;843;52.054;8.552;2022-12-07T09:11:51;14.40;;;6.23;;
1691;SDS011;843;52.054;8.552;2022-12-07T09:14:18;13.30;;;7.60;;
1691;SDS011;843;52.054;8.552;2022-12-07T09:16:44;7.50;;;5.83;;
1691;SDS011;843;52.054;8.552;2022-12-07T09:19:11;10.27;;;4.80;;
1691;SDS011;843;52.054;8.552;2022-12-07T09:21:38;8.83;;;4.77;;
1691;SDS011;843;52.054;8.552;2022-12-07T09:24:06;6.80;;;3.70;;
1691;SDS011;843;52.054;8.552;2022-12-07T09:26:34;7.73;;;4.40;;
1691;SDS011;843;52.054;8.552;2022-12-07T09:29:01;11.47;;;3.60;;
1691;SDS011;843;52.054;8.552;2022-12-07T09:31:28;4.90;;;3.20;;
1691;SDS011;843;52.054;8.552;2022-12-07T09:33:55;9.47;;;3.30;;
1691;SDS011;843;52.054;8.552;2022-12-07T09:36:22;10.07;;;4.03;;
1691;SDS011;843;52.054;8.552;2022-12-07T09:38:49;7.47;;;3.50;;
1691;SDS011;843;52.054;8.552;2022-12-07T09:41:17;5.03;;;3.33;;
1691;SDS011;843;52.054;8.552;2022-12-07T09:43:43;7.50;;;3.63;;
1691;SDS011;843;52.054;8.552;2022-12-07T09:46:11;8.43;;;3.83;;
1691;SDS011;843;52.054;8.552;2022-12-07T09:48:41;11.60;;;3.40;;
1691;SDS011;843;52.054;8.552;2022-12-07T09:51:12;6.60;;;3.90;;
1691;SDS011;843;52.054;8.552;2022-12-07T09:53:40;5.10;;;3.60;;
1691;SDS011;843;52.054;8.552;2022-12-07T09:56:09;11.00;;;3.93;;
1691;SDS011;843;52.054;8.552;2022-12-07T09:58:39;8.50;;;5.50;;
1691;SDS011;843;52.054;8.552;2022-12-07T10:01:09;7.27;;;3.73;;
1691;SDS011;843;52.054;8.552;2022-12-07T10:03:39;14.13;;;3.60;;
1691;SDS011;843;52.054;8.552;2022-12-07T10:06:09;9.17;;;4.30;;
1691;SDS011;843;52.054;8.552;2022-12-07T10:08:38;15.70;;;4.50;;
1691;SDS011;843;52.054;8.552;2022-12-07T10:11:06;5.20;;;3.30;;
1691;SDS011;843;52.054;8.552;2022-12-07T10:13:36;9.70;;;3.73;;
1691;SDS011;843;52.054;8.552;2022-12-07T10:16:05;6.73;;;3.57;;
1691;SDS011;843;52.054;8.552;2022-12-07T10:18:33;6.27;;;2.60;;
1691;SDS011;843;52.054;8.552;2022-12-07T10:21:12;7.40;;;3.60;;
1691;SDS011;843;52.054;8.552;2022-12-07T10:23:40;6.33;;;3.47;;
1691;SDS011;843;52.054;8.552;2022-12-07T10:26:20;6.43;;;3.40;;
1691;SDS011;843;52.054;8.552;2022-12-07T10:28:53;9.63;;;4.30;;
1691;SDS011;843;52.054;8.552;2022-12-07T10:31:22;9.93;;;3.00;;
1691;SDS011;843;52.054;8.552;2022-12-07T10:33:50;6.80;;;3.00;;
1691;SDS011;843;52.054;8.552;2022-12-07T10:36:19;5.33;;;3.40;;
1691;SDS011;843;52.054;8.552;2022-12-07T10:38:49;3.27;;;2.80;;
1691;SDS011;843;52.054;8.552;2022-12-07T10:41:17;10.27;;;3.90;;
1691;SDS011;843;52.054;8.552;2022-12-07T10:43:52;3.43;;;3.10;;
1691;SDS011;843;52.054;8.552;2022-12-07T10:49:25;4.30;;;2.90;;
1691;SDS011;843;52.054;8.552;2022-12-07T10:52:13;8.80;;;2.70;;
1691;SDS011;843;52.054;8.552;2022-12-07T10:54:46;10.57;;;4.60;;
1691;SDS011;843;52.054;8.552;2022-12-07T10:57:20;7.50;;;2.90;;
1691;SDS011;843;52.054;8.552;2022-12-07T11:00:00;10.63;;;2.90;;
1691;SDS011;843;52.054;8.552;2022-12-07T11:02:43;7.77;;;2.60;;
1691;SDS011;843;52.054;8.552;2022-12-07T11:05:23;9.10;;;2.73;;
1691;SDS011;843;52.054;8.552;2022-12-07T11:07:56;11.27;;;3.63;;
1691;SDS011;843;52.054;8.552;2022-12-07T11:10:29;8.73;;;3.40;;
1691;SDS011;843;52.054;8.552;2022-12-07T11:13:05;11.73;;;2.60;;
1691;SDS011;843;52.054;8.552;2022-12-07T11:15:42;9.93;;;3.20;;
1691;SDS011;843;52.054;8.552;2022-12-07T11:18:18;5.50;;;2.67;;
1691;SDS011;843;52.054;8.552;2022-12-07T11:20:51;12.97;;;2.13;;
1691;SDS011;843;52.054;8.552;2022-12-07T11:23:21;7.47;;;2.30;;
1691;SDS011;843;52.054;8.552;2022-12-07T11:25:57;5.20;;;2.17;;
1691;SDS011;843;52.054;8.552;2022-12-07T11:28:32;6.53;;;2.90;;
1691;SDS011;843;52.054;8.552;2022-12-07T11:31:12;7.20;;;2.30;;
1691;SDS011;843;52.054;8.552;2022-12-07T11:33:41;8.00;;;3.13;;
1691;SDS011;843;52.054;8.552;2022-12-07T11:36:14;6.43;;;2.70;;
1691;SDS011;843;52.054;8.552;2022-12-07T11:38:50;13.13;;;3.27;;
1691;SDS011;843;52.054;8.552;2022-12-07T11:41:20;8.03;;;2.13;;
1691;SDS011;843;52.054;8.552;2022-12-07T11:43:52;4.97;;;2.03;;
1691;SDS011;843;52.054;8.552;2022-12-07T11:46:22;6.17;;;2.73;;
1691;SDS011;843;52.054;8.552;2022-12-07T11:48:52;7.40;;;2.67;;
1691;SDS011;843;52.054;8.552;2022-12-07T11:51:25;7.40;;;2.30;;
1691;SDS011;843;52.054;8.552;2022-12-07T11:53:52;5.13;;;1.73;;
1691;SDS011;843;52.054;8.552;2022-12-07T11:56:22;6.27;;;2.30;;
1691;SDS011;843;52.054;8.552;2022-12-07T11:58:51;4.80;;;1.93;;
1691;SDS011;843;52.054;8.552;2022-12-07T12:01:34;5.90;;;1.97;;
1691;SDS011;843;52.054;8.552;2022-12-07T12:04:06;3.57;;;1.90;;
1691;SDS011;843;52.054;8.552;2022-12-07T12:06:44;3.77;;;2.20;;
1691;SDS011;843;52.054;8.552;2022-12-07T12:09:11;5.77;;;2.20;;
1691;SDS011;843;52.054;8.552;2022-12-07T12:11:45;5.70;;;2.37;;
1691;SDS011;843;52.054;8.552;2022-12-07T12:14:24;5.63;;;2.70;;
1691;SDS011;843;52.054;8.552;2022-12-07T12:17:15;8.87;;;2.20;;
1691;SDS011;843;52.054;8.552;2022-12-07T12:19:58;10.10;;;3.00;;
1691;SDS011;843;52.054;8.552;2022-12-07T12:22:32;5.80;;;1.97;;
1691;SDS011;843;52.054;8.552;2022-12-07T12:25:02;7.27;;;2.53;;
1691;SDS011;843;52.054;8.552;2022-12-07T12:27:31;6.97;;;1.80;;
1691;SDS011;843;52.054;8.552;2022-12-07T12:30:00;5.83;;;2.30;;
1691;SDS011;843;52.054;8.552;2022-12-07T12:32:31;4.20;;;1.53;;
1691;SDS011;843;52.054;8.552;2022-12-07T12:37:54;5.40;;;1.70;;
1691;SDS011;843;52.054;8.552;2022-12-07T12:40:41;4.23;;;1.70;;
1691;SDS011;843;52.054;8.552;2022-12-07T12:55:17;5.70;;;1.90;;
1691;SDS011;843;52.054;8.552;2022-12-07T12:57:46;6.80;;;1.83;;
1691;SDS011;843;52.054;8.552;2022-12-07T13:00:18;3.37;;;1.70;;
1691;SDS011;843;52.054;8.552;2022-12-07T13:02:49;5.20;;;2.10;;
1691;SDS011;843;52.054;8.552;2022-12-07T13:05:18;10.17;;;2.20;;
1691;SDS011;843;52.054;8.552;2022-12-07T13:07:59;7.70;;;2.73;;
1691;SDS011;843;52.054;8.552;2022-12-07T13:10:35;4.67;;;2.27;;
1691;SDS011;843;52.054;8.552;2022-12-07T13:13:08;2.70;;;1.80;;
1691;SDS011;843;52.054;8.552;2022-12-07T13:19:21;4.07;;;2.23;;
1691;SDS011;843;52.054;8.552;2022-12-07T13:25:18;6.20;;;3.43;;
1691;SDS011;843;52.054;8.552;2022-12-07T13:27:51;5.63;;;2.47;;
1691;SDS011;843;52.054;8.552;2022-12-07T13:30:22;13.30;;;2.70;;
1691;SDS011;843;52.054;8.552;2022-12-07T13:32:51;4.93;;;2.20;;
1691;SDS011;843;52.054;8.552;2022-12-07T13:35:31;10.13;;;2.60;;
1691;SDS011;843;52.054;8.552;2022-12-07T13:38:01;4.50;;;2.23;;
1691;SDS011;843;52.054;8.552;2022-12-07T13:40:29;7.13;;;2.33;;
1691;SDS011;843;52.054;8.552;2022-12-07T13:43:01;7.63;;;2.30;;
1691;SDS011;843;52.054;8.552;2022-12-07T13:45:31;7.50;;;2.80;;
1691;SDS011;843;52.054;8.552;2022-12-07T13:48:19;9.10;;;2.70;;
1691;SDS011;843;52.054;8.552;2022-12-07T13:50:52;6.10;;;2.60;;
1691;SDS011;843;52.054;8.552;2022-12-07T13:53:20;10.03;;;2.10;;
1691;SDS011;843;52.054;8.552;2022-12-07T13:55:47;7.40;;;2.67;;
1691;SDS011;843;52.054;8.552;2022-12-07T13:58:15;10.13;;;2.80;;
1691;SDS011;843;52.054;8.552;2022-12-07T14:00:42;8.13;;;2.60;;
1691;SDS011;843;52.054;8.552;2022-12-07T14:03:25;7.00;;;2.67;;
1691;SDS011;843;52.054;8.552;2022-12-07T14:11:44;5.20;;;2.73;;
1691;SDS011;843;52.054;8.552;2022-12-07T14:14:13;6.33;;;2.90;;
1691;SDS011;843;52.054;8.552;2022-12-07T14:16:54;4.63;;;2.30;;
1691;SDS011;843;52.054;8.552;2022-12-07T14:19:45;8.90;;;2.60;;
1691;SDS011;843;52.054;8.552;2022-12-07T14:24:59;5.70;;;2.53;;
1691;SDS011;843;52.054;8.552;2022-12-07T14:27:47;5.97;;;2.07;;
1691;SDS011;843;52.054;8.552;2022-12-07T14:30:19;6.97;;;2.40;;
1691;SDS011;843;52.054;8.552;2022-12-07T14:32:47;6.00;;;2.17;;
1691;SDS011;843;52.054;8.552;2022-12-07T14:35:16;5.67;;;2.57;;
1691;SDS011;843;52.054;8.552;2022-12-07T14:37:44;3.53;;;2.77;;
1691;SDS011;843;52.054;8.552;2022-12-07T14:40:14;3.20;;;2.00;;
1691;SDS011;843;52.054;8.552;2022-12-07T14:42:41;6.87;;;2.30;;
1691;SDS011;843;52.054;8.552;2022-12-07T14:45:12;5.70;;;2.40;;
1691;SDS011;843;52.054;8.552;2022-12-07T14:47:41;8.73;;;2.50;;
1691;SDS011;843;52.054;8.552;2022-12-07T14:50:10;11.93;;;3.20;;
1691;SDS011;843;52.054;8.552;2022-12-07T14:52:38;9.80;;;2.80;;
1691;SDS011;843;52.054;8.552;2022-12-07T14:55:11;16.40;;;3.07;;
1691;SDS011;843;52.054;8.552;2022-12-07T14:57:40;10.13;;;2.50;;
1691;SDS011;843;52.054;8.552;2022-12-07T15:00:09;6.97;;;2.87;;
1691;SDS011;843;52.054;8.552;2022-12-07T15:02:46;5.90;;;2.63;;
1691;SDS011;843;52.054;8.552;2022-12-07T15:05:13;13.47;;;2.40;;
1691;SDS011;843;52.054;8.552;2022-12-07T15:07:40;13.03;;;3.20;;
1691;SDS011;843;52.054;8.552;2022-12-07T15:10:09;4.53;;;2.83;;
1691;SDS011;843;52.054;8.552;2022-12-07T15:12:41;7.67;;;2.50;;
1691;SDS011;843;52.054;8.552;2022-12-07T15:15:10;6.37;;;3.10;;
1691;SDS011;843;52.054;8.552;2022-12-07T15:17:37;6.57;;;2.20;;
1691;SDS011;843;52.054;8.552;2022-12-07T15:20:07;8.40;;;3.27;;
1691;SDS011;843;52.054;8.552;2022-12-07T15:22:35;10.17;;;3.30;;
1691;SDS011;843;52.054;8.552;2022-12-07T15:25:02;6.73;;;2.73;;
1691;SDS011;843;52.054;8.552;2022-12-07T15:27:30;7.73;;;2.90;;
1691;SDS011;843;52.054;8.552;2022-12-07T15:29:57;7.37;;;2.10;;
1691;SDS011;843;52.054;8.552;2022-12-07T15:32:24;9.33;;;2.80;;
1691;SDS011;843;52.054;8.552;2022-12-07T15:34:51;7.77;;;3.00;;
1691;SDS011;843;52.054;8.552;2022-12-07T15:37:20;3.90;;;2.53;;
1691;SDS011;843;52.054;8.552;2022-12-07T15:39:46;10.07;;;2.37;;
1691;SDS011;843;52.054;8.552;2022-12-07T15:42:13;6.70;;;2.57;;
1691;SDS011;843;52.054;8.552;2022-12-07T15:44:40;8.17;;;2.47;;
1691;SDS011;843;52.054;8.552;2022-12-07T15:47:24;4.07;;;2.57;;
1691;SDS011;843;52.054;8.552;2022-12-07T15:49:51;10.93;;;3.10;;
1691;SDS011;843;52.054;8.552;2022-12-07T15:52:19;7.47;;;3.60;;
1691;SDS011;843;52.054;8.552;2022-12-07T15:54:46;5.03;;;2.80;;
1691;SDS011;843;52.054;8.552;2022-12-07T15:57:13;11.00;;;3.43;;
1691;SDS011;843;52.054;8.552;2022-12-07T15:59:40;11.40;;;2.80;;
1691;SDS011;843;52.054;8.552;2022-12-07T16:02:07;14.57;;;4.37;;